Time,TemperatureF,DewpointF,PressureIn,WindDirection,WindDirectionDegrees,WindSpeedMPH,WindSpeedGustMPH,Humidity,HourlyPrecipIn,Conditions,Clouds,dailyrainin,SolarRadiationWatts/m^2,SoftwareType,DateUTC
2013-02-23 00:07:00,21.5,14.0,29.94,SW,225,0.0,-999.0,74,-99.99,,,0.00,0,weatherlink.com 1.10,2013-02-23 07:07:00,
2013-02-23 00:22:00,20.9,14.0,29.94,SW,225,0.0,-999.0,74,-99.99,,,0.00,0,weatherlink.com 1.10,2013-02-23 07:22:00,
2013-02-23 00:37:00,20.2,13.0,29.93,SW,225,0.0,-999.0,75,-99.99,,,0.00,0,weatherlink.com 1.10,2013-02-23 07:37:00,
2013-02-23 00:52:00,20.1,13.0,29.93,SW,225,0.0,-999.0,75,-99.99,,,0.00,0,weatherlink.com 1.10,2013-02-23 07:52:00,
2013-02-23 01:07:00,20.2,13.0,29.93,SW,225,0.0,-999.0,75,-99.99,,,0.00,0,weatherlink.com 1.10,2013-02-23 08:07:00,
2013-02-23 01:22:00,20.1,13.0,29.92,SW,225,0.0,-999.0,75,-99.99,,,0.00,0,weatherlink.com 1.10,2013-02-23 08:22:00,
2013-02-23 01:38:00,19.7,13.0,29.92,SW,225,0.0,-999.0,75,-99.99,,,0.00,0,weatherlink.com 1.10,2013-02-23 08:38:00,
2013-02-23 01:53:00,19.1,13.0,29.91,SW,225,0.0,-999.0,76,-99.99,,,0.00,0,weatherlink.com 1.10,2013-02-23 08:53:00,
2013-02-23 02:08:00,19.1,13.0,29.90,SW,225,0.0,-999.0,77,-99.99,,,0.00,0,weatherlink.com 1.10,2013-02-23 09:08:00,
2013-02-23 02:23:00,19.1,13.0,29.89,SW,225,0.0,-999.0,77,-99.99,,,0.00,0,weatherlink.com 1.10,2013-02-23 09:23:00,
2013-02-23 02:38:00,20.0,13.0,29.89,SW,225,0.0,-999.0,75,-99.99,,,0.00,0,weatherlink.com 1.10,2013-02-23 09:38:00,
2013-02-23 02:53:00,19.9,13.0,29.88,SW,225,0.0,-999.0,74,-99.99,,,0.00,0,weatherlink.com 1.10,2013-02-23 09:53:00,
2013-02-23 03:08:00,20.2,13.0,29.88,SW,225,0.0,-999.0,74,-99.99,,,0.00,0,weatherlink.com 1.10,2013-02-23 10:08:00,
2013-02-23 03:23:00,20.4,13.0,29.87,SW,225,0.0,-999.0,73,-99.99,,,0.00,0,weatherlink.com 1.10,2013-02-23 10:23:00,
2013-02-23 03:38:00,21.1,13.0,29.86,SW,225,0.0,-999.0,72,-99.99,,,0.00,0,weatherlink.com 1.10,2013-02-23 10:38:00,
2013-02-23 03:53:00,21.7,13.0,29.86,SW,225,0.0,-999.0,70,-99.99,,,0.00,0,weatherlink.com 1.10,2013-02-23 10:53:00,
2013-02-23 04:08:00,22.2,13.0,29.85,SW,225,0.0,-999.0,69,-99.99,,,0.00,0,weatherlink.com 1.10,2013-02-23 11:08:00,
2013-02-23 04:23:00,22.4,12.0,29.85,SW,225,1.0,-999.0,65,-99.99,,,0.00,0,weatherlink.com 1.10,2013-02-23 11:23:00,
2013-02-23 04:38:00,21.5,12.0,29.85,SW,225,1.0,-999.0,66,-99.99,,,0.00,0,weatherlink.com 1.10,2013-02-23 11:38:00,
2013-02-23 04:53:00,22.5,12.0,29.85,SW,225,0.0,-999.0,65,-99.99,,,0.00,0,weatherlink.com 1.10,2013-02-23 11:53:00,
2013-02-23 05:08:00,22.4,11.0,29.85,SW,225,1.0,-999.0,63,-99.99,,,0.00,0,weatherlink.com 1.10,2013-02-23 12:08:00,
2013-02-23 05:23:00,22.4,11.0,29.85,SW,225,0.0,-999.0,63,-99.99,,,0.00,0,weatherlink.com 1.10,2013-02-23 12:23:00,
2013-02-23 05:38:00,22.4,11.0,29.85,SW,225,0.0,-999.0,63,-99.99,,,0.00,0,weatherlink.com 1.10,2013-02-23 12:38:00,
2013-02-23 05:53:00,22.5,11.0,29.84,SW,225,0.0,-999.0,62,-99.99,,,0.00,0,weatherlink.com 1.10,2013-02-23 12:53:00,
2013-02-23 06:08:00,21.3,10.0,29.84,SW,225,0.0,-999.0,63,-99.99,,,0.00,0,weatherlink.com 1.10,2013-02-23 13:08:00,
2013-02-23 06:23:00,21.3,11.0,29.84,SW,225,0.0,-999.0,64,-99.99,,,0.00,0,weatherlink.com 1.10,2013-02-23 13:23:00,
2013-02-23 06:38:00,22.7,11.0,29.84,SW,225,0.0,-999.0,61,-99.99,,,0.00,7,weatherlink.com 1.10,2013-02-23 13:38:00,
2013-02-23 06:53:00,23.5,11.0,29.84,SW,225,0.0,-999.0,60,-99.99,,,0.00,14,weatherlink.com 1.10,2013-02-23 13:53:00,
2013-02-23 07:08:00,23.9,11.0,29.84,SW,225,0.0,-999.0,59,-99.99,,,0.00,37,weatherlink.com 1.10,2013-02-23 14:08:00,
2013-02-23 07:23:00,25.2,12.0,29.84,WNW,292,1.0,-999.0,58,-99.99,,,0.00,51,weatherlink.com 1.10,2013-02-23 14:23:00,
2013-02-23 07:38:00,26.7,12.0,29.84,WNW,292,3.0,-999.0,54,-99.99,,,0.00,53,weatherlink.com 1.10,2013-02-23 14:38:00,
2013-02-23 07:53:00,28.0,12.0,29.84,WNW,291,3.0,-999.0,52,-99.99,,,0.00,91,weatherlink.com 1.10,2013-02-23 14:53:00,
2013-02-23 08:08:00,29.5,13.0,29.84,NW,319,2.0,-999.0,50,-99.99,,,0.00,95,weatherlink.com 1.10,2013-02-23 15:08:00,
2013-02-23 08:23:00,31.1,13.0,29.85,West,280,2.0,-999.0,48,-99.99,,,0.00,155,weatherlink.com 1.10,2013-02-23 15:23:00,
2013-02-23 08:38:00,32.3,13.0,29.85,West,281,3.0,-999.0,46,-99.99,,,0.00,46,weatherlink.com 1.10,2013-02-23 15:38:00,
2013-02-23 08:54:00,33.8,14.0,29.85,West,281,2.0,-999.0,44,-99.99,,,0.00,209,weatherlink.com 1.10,2013-02-23 15:54:00,
2013-02-23 09:09:00,36.8,16.0,29.84,West,281,0.0,-999.0,42,-99.99,,,0.00,288,weatherlink.com 1.10,2013-02-23 16:09:00,
2013-02-23 09:24:00,38.4,15.0,29.84,West,281,0.0,-999.0,38,-99.99,,,0.00,202,weatherlink.com 1.10,2013-02-23 16:24:00,
2013-02-23 09:39:00,39.7,15.0,29.83,West,280,1.0,-999.0,37,-99.99,,,0.00,237,weatherlink.com 1.10,2013-02-23 16:39:00,
2013-02-23 09:54:00,40.9,14.0,29.83,West,281,0.0,-999.0,33,-99.99,,,0.00,239,weatherlink.com 1.10,2013-02-23 16:54:00,
2013-02-23 10:09:00,42.1,13.0,29.83,West,281,0.0,-999.0,31,-99.99,,,0.00,163,weatherlink.com 1.10,2013-02-23 17:09:00,
2013-02-23 10:24:00,42.5,12.0,29.82,West,281,0.0,-999.0,29,-99.99,,,0.00,179,weatherlink.com 1.10,2013-02-23 17:24:00,
2013-02-23 10:39:00,43.8,12.0,29.82,SE,132,2.0,-999.0,28,-99.99,,,0.00,325,weatherlink.com 1.10,2013-02-23 17:39:00,
2013-02-23 10:54:00,44.2,13.0,29.82,SE,132,1.0,-999.0,28,-99.99,,,0.00,362,weatherlink.com 1.10,2013-02-23 17:54:00,
2013-02-23 11:09:00,45.9,13.0,29.82,NNW,341,0.0,-999.0,27,-99.99,,,0.00,362,weatherlink.com 1.10,2013-02-23 18:09:00,
2013-02-23 11:24:00,45.2,14.0,29.82,East,96,4.0,-999.0,28,-99.99,,,0.00,494,weatherlink.com 1.10,2013-02-23 18:24:00,
2013-02-23 11:39:00,45.2,14.0,29.81,East,92,2.0,-999.0,28,-99.99,,,0.00,501,weatherlink.com 1.10,2013-02-23 18:39:00,
2013-02-23 11:54:00,45.2,15.0,29.80,ESE,109,1.0,-999.0,30,-99.99,,,0.00,443,weatherlink.com 1.10,2013-02-23 18:54:00,
2013-02-23 12:09:00,45.2,16.0,29.79,ESE,119,0.0,-999.0,31,-99.99,,,0.00,475,weatherlink.com 1.10,2013-02-23 19:09:00,
2013-02-23 12:24:00,45.5,16.0,29.79,East,94,2.0,-999.0,31,-99.99,,,0.00,454,weatherlink.com 1.10,2013-02-23 19:24:00,
2013-02-23 12:39:00,45.9,16.0,29.79,ESE,103,4.0,-999.0,30,-99.99,,,0.00,279,weatherlink.com 1.10,2013-02-23 19:39:00,
2013-02-23 12:54:00,45.3,16.0,29.78,ESE,115,4.0,-999.0,31,-99.99,,,0.00,283,weatherlink.com 1.10,2013-02-23 19:54:00,
2013-02-23 13:09:00,45.1,16.0,29.78,ENE,57,3.0,-999.0,31,-99.99,,,0.00,272,weatherlink.com 1.10,2013-02-23 20:09:00,
2013-02-23 13:24:00,45.0,17.0,29.77,SSE,167,0.0,-999.0,32,-99.99,,,0.00,269,weatherlink.com 1.10,2013-02-23 20:24:00,
2013-02-23 13:39:00,45.3,17.0,29.77,South,189,3.0,-999.0,32,-99.99,,,0.00,292,weatherlink.com 1.10,2013-02-23 20:39:00,
2013-02-23 13:54:00,45.4,16.0,29.77,ESE,104,1.0,-999.0,31,-99.99,,,0.00,283,weatherlink.com 1.10,2013-02-23 20:54:00,
2013-02-23 14:09:00,45.7,17.0,29.76,South,189,0.0,-999.0,32,-99.99,,,0.00,390,weatherlink.com 1.10,2013-02-23 21:09:00,
2013-02-23 14:24:00,45.8,17.0,29.77,SE,138,5.0,-999.0,32,-99.99,,,0.00,285,weatherlink.com 1.10,2013-02-23 21:24:00,
2013-02-23 14:39:00,45.6,17.0,29.77,SSW,200,4.0,-999.0,32,-99.99,,,0.00,325,weatherlink.com 1.10,2013-02-23 21:39:00,
2013-02-23 14:54:00,46.2,17.0,29.77,East,92,1.0,-999.0,31,-99.99,,,0.00,246,weatherlink.com 1.10,2013-02-23 21:54:00,
2013-02-23 15:09:00,45.2,17.0,29.77,ESE,118,0.0,-999.0,32,-99.99,,,0.00,167,weatherlink.com 1.10,2013-02-23 22:09:00,
2013-02-23 15:24:00,45.2,17.0,29.77,ESE,103,3.0,-999.0,32,-99.99,,,0.00,179,weatherlink.com 1.10,2013-02-23 22:24:00,
2013-02-23 15:39:00,44.5,16.0,29.78,ESE,118,0.0,-999.0,32,-99.99,,,0.00,132,weatherlink.com 1.10,2013-02-23 22:39:00,
2013-02-23 15:54:00,44.4,17.0,29.78,ENE,74,1.0,-999.0,33,-99.99,,,0.00,105,weatherlink.com 1.10,2013-02-23 22:54:00,
2013-02-23 16:09:00,44.4,16.0,29.78,ENE,64,2.0,-999.0,32,-99.99,,,0.00,79,weatherlink.com 1.10,2013-02-23 23:09:00,
2013-02-23 16:24:00,43.8,16.0,29.79,ENE,60,1.0,-999.0,33,-99.99,,,0.00,46,weatherlink.com 1.10,2013-02-23 23:24:00,
2013-02-23 16:39:00,43.2,16.0,29.79,ENE,71,1.0,-999.0,34,-99.99,,,0.00,14,weatherlink.com 1.10,2013-02-23 23:39:00,
2013-02-23 16:55:00,42.7,17.0,29.80,ENE,71,2.0,-999.0,35,-99.99,,,0.00,11,weatherlink.com 1.10,2013-02-23 23:55:00,
2013-02-23 17:10:00,42.2,17.0,29.80,ENE,71,0.0,-999.0,36,-99.99,,,0.00,5,weatherlink.com 1.10,2013-02-24 00:10:00,
2013-02-23 17:25:00,41.6,18.0,29.81,ENE,71,0.0,-999.0,38,-99.99,,,0.00,0,weatherlink.com 1.10,2013-02-24 00:25:00,
2013-02-23 17:40:00,41.0,18.0,29.81,ENE,71,0.0,-999.0,39,-99.99,,,0.00,0,weatherlink.com 1.10,2013-02-24 00:40:00,
2013-02-23 17:55:00,40.3,18.0,29.82,ENE,71,0.0,-999.0,40,-99.99,,,0.00,0,weatherlink.com 1.10,2013-02-24 00:55:00,
2013-02-23 18:10:00,39.9,18.0,29.83,ENE,71,0.0,-999.0,41,-99.99,,,0.00,0,weatherlink.com 1.10,2013-02-24 01:10:00,
2013-02-23 18:25:00,39.1,18.0,29.84,ENE,71,0.0,-999.0,42,-99.99,,,0.00,0,weatherlink.com 1.10,2013-02-24 01:25:00,
2013-02-23 18:40:00,38.5,18.0,29.84,ENE,71,0.0,-999.0,43,-99.99,,,0.00,0,weatherlink.com 1.10,2013-02-24 01:40:00,
2013-02-23 18:55:00,37.8,18.0,29.85,ENE,71,0.0,-999.0,44,-99.99,,,0.00,0,weatherlink.com 1.10,2013-02-24 01:55:00,
2013-02-23 19:10:00,37.1,18.0,29.85,ENE,71,0.0,-999.0,46,-99.99,,,0.00,0,weatherlink.com 1.10,2013-02-24 02:10:00,
2013-02-23 19:25:00,36.5,18.0,29.85,ENE,71,0.0,-999.0,47,-99.99,,,0.00,0,weatherlink.com 1.10,2013-02-24 02:25:00,
2013-02-23 19:40:00,36.1,18.0,29.86,ENE,71,0.0,-999.0,48,-99.99,,,0.00,0,weatherlink.com 1.10,2013-02-24 02:40:00,
2013-02-23 19:55:00,35.6,18.0,29.86,ENE,71,0.0,-999.0,49,-99.99,,,0.00,0,weatherlink.com 1.10,2013-02-24 02:55:00,
2013-02-23 20:10:00,35.0,18.0,29.87,ENE,71,0.0,-999.0,51,-99.99,,,0.00,0,weatherlink.com 1.10,2013-02-24 03:10:00,
2013-02-23 20:25:00,34.6,19.0,29.88,ENE,71,0.0,-999.0,53,-99.99,,,0.00,0,weatherlink.com 1.10,2013-02-24 03:25:00,
2013-02-23 20:40:00,34.6,20.0,29.89,ENE,71,2.0,-999.0,55,-99.99,,,0.00,0,weatherlink.com 1.10,2013-02-24 03:40:00,
2013-02-23 20:55:00,34.5,20.0,29.89,ENE,71,0.0,-999.0,56,-99.99,,,0.00,0,weatherlink.com 1.10,2013-02-24 03:55:00,
2013-02-23 21:10:00,34.1,21.0,29.90,ENE,71,0.0,-999.0,58,-99.99,,,0.00,0,weatherlink.com 1.10,2013-02-24 04:10:00,
2013-02-23 21:25:00,33.4,20.0,29.91,ENE,71,1.0,-999.0,59,-99.99,,,0.00,0,weatherlink.com 1.10,2013-02-24 04:25:00,
2013-02-23 21:40:00,33.8,19.0,29.91,NNE,15,1.0,-999.0,56,-99.99,,,0.00,0,weatherlink.com 1.10,2013-02-24 04:40:00,
2013-02-23 21:55:00,33.0,18.0,29.91,NNE,14,2.0,-999.0,55,-99.99,,,0.00,0,weatherlink.com 1.10,2013-02-24 04:55:00,
2013-02-23 22:10:00,33.0,19.0,29.91,NNE,15,2.0,-999.0,56,-99.99,,,0.00,0,weatherlink.com 1.10,2013-02-24 05:10:00,
2013-02-23 22:25:00,33.8,22.0,29.91,NNE,15,2.0,-999.0,63,-99.99,,,0.00,0,weatherlink.com 1.10,2013-02-24 05:25:00,
2013-02-23 22:40:00,33.9,23.0,29.92,NNE,15,2.0,-999.0,64,-99.99,,,0.00,0,weatherlink.com 1.10,2013-02-24 05:40:00,
2013-02-23 22:55:00,33.9,24.0,29.92,NNE,14,2.0,-999.0,68,-99.99,,,0.00,0,weatherlink.com 1.10,2013-02-24 05:55:00,
2013-02-23 23:10:00,34.3,26.0,29.92,NNE,14,2.0,-999.0,73,-99.99,,,0.00,0,weatherlink.com 1.10,2013-02-24 06:10:00,
2013-02-23 23:25:00,34.6,28.0,29.92,NNE,14,3.0,-999.0,76,-99.99,,,0.00,0,weatherlink.com 1.10,2013-02-24 06:25:00,
2013-02-23 23:40:00,35.0,29.0,29.92,NNE,13,2.0,-999.0,78,-99.99,,,0.00,0,weatherlink.com 1.10,2013-02-24 06:40:00,
2013-02-23 23:55:00,34.7,29.0,29.93,NNE,13,2.0,-999.0,79,-99.99,,,0.00,0,weatherlink.com 1.10,2013-02-24 06:55:00,